createdAt,value
2022-10-02T00:02:32.870Z,101392.94
2022-10-02T00:05:07.336Z,101391.47
2022-10-02T00:07:46.398Z,101393.81
2022-10-02T00:10:18.832Z,101409.50
2022-10-02T00:12:48.046Z,101408.44
2022-10-02T00:15:23.632Z,101411.97
2022-10-02T00:17:53.282Z,101415.81
2022-10-02T00:20:27.592Z,101410.19
2022-10-02T00:23:16.275Z,101411.34
2022-10-02T00:25:56.179Z,101421.69
2022-10-02T00:28:31.311Z,101423.63
2022-10-02T00:31:26.872Z,101464.03
2022-10-02T00:34:21.468Z,101457.84
2022-10-02T00:37:01.413Z,101467.97
2022-10-02T00:39:30.719Z,101449.94
2022-10-02T00:42:15.549Z,101444.50
2022-10-02T00:44:53.970Z,101446.28
2022-10-02T00:47:43.641Z,101456.53
2022-10-02T00:50:24.509Z,101458.03
2022-10-02T00:53:28.900Z,101457.72
2022-10-02T00:56:22.081Z,101461.97
2022-10-02T00:59:18.997Z,101462.84
2022-10-02T01:01:58.661Z,101458.34
2022-10-02T01:04:34.694Z,101460.72
2022-10-02T01:07:04.027Z,101458.91
2022-10-02T01:09:30.868Z,101454.44
2022-10-02T01:11:57.578Z,101446.13
2022-10-02T01:14:34.594Z,101451.13
2022-10-02T01:17:01.981Z,101446.66
2022-10-02T01:19:37.633Z,101452.41
2022-10-02T01:22:23.548Z,101449.88
2022-10-02T01:24:55.112Z,101443.78
2022-10-02T01:27:22.161Z,101443.47
2022-10-02T01:29:55.484Z,101445.06
2022-10-02T01:32:25.932Z,101450.41
2022-10-02T01:34:56.484Z,101443.88
2022-10-02T01:37:26.185Z,101446.13
2022-10-02T01:39:52.988Z,101448.38
2022-10-02T01:42:21.291Z,101451.03
2022-10-02T01:44:48.454Z,101462.03
2022-10-02T01:47:46.131Z,101451.34
2022-10-02T01:50:21.763Z,101460.09
2022-10-02T01:52:59.566Z,101458.50
2022-10-02T01:55:50.718Z,101460.75
2022-10-02T01:58:26.259Z,101466.50
2022-10-02T02:01:01.240Z,101464.56
2022-10-02T02:03:43.150Z,101462.34
2022-10-02T02:06:24.745Z,101457.00
2022-10-02T02:09:09.710Z,101457.44
2022-10-02T02:11:41.033Z,101462.03
2022-10-02T02:14:17.420Z,101463.50
2022-10-02T02:16:49.861Z,101465.44
2022-10-02T02:19:27.674Z,101466.50
2022-10-02T02:21:58.556Z,101458.50
2022-10-02T02:24:31.264Z,101463.09
2022-10-02T02:27:01.410Z,101460.84
2022-10-02T02:29:32.155Z,101456.38
2022-10-02T02:32:02.827Z,101456.03
2022-10-02T02:34:37.111Z,101461.06
2022-10-02T02:37:13.717Z,101458.06
2022-10-02T02:39:52.580Z,101469.47
2022-10-02T02:42:26.222Z,101461.59
2022-10-02T02:45:01.006Z,101463.81
2022-10-02T02:47:45.093Z,101468.00
2022-10-02T02:50:11.524Z,101462.56
2022-10-02T02:52:44.799Z,101463.19
2022-10-02T02:55:27.019Z,101468.84
2022-10-02T02:58:05.248Z,101471.41
2022-10-02T03:00:31.725Z,101472.91
2022-10-02T03:02:58.432Z,101468.75
2022-10-02T03:05:25.631Z,101473.31
2022-10-02T03:07:59.159Z,101467.56
2022-10-02T03:10:44.230Z,101467.25
2022-10-02T03:13:33.854Z,101465.75
2022-10-02T03:16:42.120Z,101465.44
2022-10-02T03:19:39.142Z,101452.94
2022-10-02T03:22:11.826Z,101454.22
2022-10-02T03:25:02.724Z,101460.72
2022-10-02T03:27:36.912Z,101464.34
2022-10-02T03:30:12.718Z,101473.94
2022-10-02T03:32:41.583Z,101473.31
2022-10-02T03:35:14.127Z,101480.22
2022-10-02T03:37:49.533Z,101485.25
2022-10-02T03:40:16.252Z,101485.25
2022-10-02T03:42:42.849Z,101479.47
2022-10-02T03:45:09.656Z,101487.06
2022-10-02T03:47:36.131Z,101483.53
2022-10-02T03:50:02.519Z,101484.19
2022-10-02T03:52:32.405Z,101490.69
2022-10-02T03:55:03.887Z,101488.44
2022-10-02T03:57:33.935Z,101496.44
2022-10-02T04:00:09.192Z,101494.94
2022-10-02T04:02:52.303Z,101487.69
2022-10-02T04:05:29.975Z,101497.94
2022-10-02T04:08:02.118Z,101497.63
2022-10-02T04:10:40.581Z,101500.69
2022-10-02T04:13:16.468Z,101501.44
2022-10-02T04:15:57.772Z,101499.53
2022-10-02T04:18:29.119Z,101507.94
2022-10-02T04:21:03.352Z,101496.66
2022-10-02T04:23:42.493Z,101503.28
2022-10-02T04:26:20.711Z,101504.53
2022-10-02T04:28:59.621Z,101506.22
2022-10-02T04:31:27.946Z,101506.34
2022-10-02T04:33:59.090Z,101518.91
2022-10-02T04:36:31.484Z,101514.31
2022-10-02T04:39:03.008Z,101522.00
2022-10-02T04:41:35.333Z,101520.91
2022-10-02T04:44:34.371Z,101518.34
2022-10-02T04:47:11.679Z,101528.34
2022-10-02T04:49:52.367Z,101529.94
2022-10-02T04:52:37.493Z,101526.63
2022-10-02T04:55:31.488Z,101522.13
2022-10-02T04:58:22.249Z,101522.59
2022-10-02T05:00:51.629Z,101523.44
2022-10-02T05:03:43.452Z,101526.84
2022-10-02T05:06:28.487Z,101520.44
2022-10-02T05:09:16.789Z,101529.59
2022-10-02T05:12:08.177Z,101528.75
2022-10-02T05:14:56.256Z,101525.25
2022-10-02T05:17:39.919Z,101531.53
2022-10-02T05:20:35.361Z,101539.00
2022-10-02T05:23:30.852Z,101559.81
2022-10-02T05:26:03.461Z,101564.94
2022-10-02T05:29:07.983Z,101573.06
2022-10-02T05:31:52.624Z,101572.97
2022-10-02T05:34:46.679Z,101573.31
2022-10-02T05:37:31.763Z,101578.97
2022-10-02T05:40:26.240Z,101583.41
2022-10-02T05:43:06.112Z,101581.09
2022-10-02T05:45:38.384Z,101593.25
2022-10-02T05:48:13.720Z,101584.50
2022-10-02T05:50:41.484Z,101576.19
2022-10-02T05:53:22.389Z,101570.09
2022-10-02T05:55:55.195Z,101574.69
2022-10-02T05:58:30.477Z,101580.75
2022-10-02T06:01:03.818Z,101572.47
2022-10-02T06:03:52.680Z,101577.34
2022-10-02T06:06:41.435Z,101567.00
2022-10-02T06:09:20.533Z,101569.25
2022-10-02T06:12:01.608Z,101567.66
2022-10-02T06:14:36.567Z,101573.75
2022-10-02T06:17:12.587Z,101586.66
2022-10-02T06:19:47.064Z,101586.53
2022-10-02T06:22:24.797Z,101584.94
2022-10-02T06:24:58.067Z,101591.78
2022-10-02T06:27:44.223Z,101599.34
2022-10-02T06:30:14.160Z,101601.28
2022-10-02T06:32:58.648Z,101598.50
2022-10-02T06:35:46.734Z,101606.00
2022-10-02T06:38:25.131Z,101613.16
2022-10-02T06:40:56.555Z,101611.44
2022-10-02T06:43:50.737Z,101619.34
2022-10-02T06:47:01.258Z,101627.53
2022-10-02T06:49:36.877Z,101634.28
2022-10-02T06:52:19.384Z,101639.09
2022-10-02T06:55:08.010Z,101637.09
2022-10-02T06:57:52.875Z,101644.25
2022-10-02T07:00:21.800Z,101636.16
2022-10-02T07:03:18.934Z,101641.28
2022-10-02T07:05:54.012Z,101652.16
2022-10-02T07:08:51.444Z,101648.94
2022-10-02T07:11:28.120Z,101657.16
2022-10-02T07:14:16.872Z,101653.97
2022-10-02T07:17:08.227Z,101653.44
2022-10-02T07:20:02.465Z,101661.34
2022-10-02T07:22:49.555Z,101665.81
2022-10-02T07:25:31.124Z,101669.88
2022-10-02T07:28:45.762Z,101677.78
2022-10-02T07:31:46.062Z,101678.75
2022-10-02T07:34:43.834Z,101685.03
2022-10-02T07:37:13.167Z,101680.31
2022-10-02T07:39:53.957Z,101686.63
2022-10-02T07:42:33.760Z,101693.66
2022-10-02T07:45:22.227Z,101699.22
2022-10-02T07:48:02.148Z,101690.53
2022-10-02T07:50:58.034Z,101693.28
2022-10-02T07:53:51.464Z,101692.94
2022-10-02T07:56:22.559Z,101695.69
2022-10-02T07:58:57.002Z,101693.84
2022-10-02T08:01:29.208Z,101701.81
2022-10-02T08:04:00.326Z,101706.56
2022-10-02T08:06:27.059Z,101704.94
2022-10-02T08:09:06.165Z,101704.38
2022-10-02T08:11:56.580Z,101711.97
2022-10-02T08:14:28.727Z,101720.00
2022-10-02T08:17:00.867Z,101725.78
2022-10-02T08:19:39.310Z,101721.47
2022-10-02T08:22:24.810Z,101724.03
2022-10-02T08:24:57.636Z,101732.81
2022-10-02T08:27:50.061Z,101734.50
2022-10-02T08:30:16.756Z,101723.22
2022-10-02T08:32:43.895Z,101739.00
2022-10-02T08:35:15.805Z,101736.50
2022-10-02T08:38:31.532Z,101743.97
2022-10-02T08:41:12.923Z,101751.66
2022-10-02T08:44:03.954Z,101757.25
2022-10-02T08:46:58.385Z,101760.56
2022-10-02T08:50:01.747Z,101755.69
2022-10-02T08:52:41.852Z,101765.25
2022-10-02T08:55:50.559Z,101765.81
2022-10-02T08:59:05.381Z,101778.78
2022-10-02T09:02:02.380Z,101771.81
2022-10-02T09:04:59.535Z,101777.19
2022-10-02T09:08:02.660Z,101775.41
2022-10-02T09:10:53.324Z,101782.09
2022-10-02T09:13:40.112Z,101783.47
2022-10-02T09:16:27.905Z,101775.28
2022-10-02T09:19:00.075Z,101778.53
2022-10-02T09:21:44.851Z,101785.09
2022-10-02T09:24:23.312Z,101789.25
2022-10-02T09:27:27.112Z,101796.44
2022-10-02T09:30:12.172Z,101801.50
2022-10-02T09:32:59.594Z,101802.22
2022-10-02T09:36:01.820Z,101797.31
2022-10-02T09:39:12.231Z,101797.47
2022-10-02T09:42:15.633Z,101801.59
2022-10-02T09:45:09.843Z,101809.22
2022-10-02T09:48:16.832Z,101813.56
2022-10-02T09:51:17.602Z,101813.88
2022-10-02T09:54:01.667Z,101807.47
2022-10-02T09:56:49.350Z,101802.97
2022-10-02T09:59:49.017Z,101808.66
2022-10-02T10:02:30.706Z,101808.91
2022-10-02T10:05:13.010Z,101803.81
2022-10-02T10:08:06.643Z,101810.81
2022-10-02T10:11:07.766Z,101818.91
2022-10-02T10:13:59.652Z,101827.44
2022-10-02T10:16:44.402Z,101832.66
2022-10-02T10:19:13.786Z,101835.78
2022-10-02T10:21:58.825Z,101822.34
2022-10-02T10:24:54.578Z,101828.72
2022-10-02T10:27:42.961Z,101839.88
2022-10-02T10:30:21.887Z,101836.16
2022-10-02T10:33:05.758Z,101844.31
2022-10-02T10:36:36.525Z,101845.78
2022-10-02T10:39:21.365Z,101850.38
2022-10-02T10:42:06.580Z,101851.41
2022-10-02T10:45:03.950Z,101846.81
2022-10-02T10:48:25.024Z,101852.47
2022-10-02T10:51:02.177Z,101855.75
2022-10-02T10:54:01.014Z,101865.88
2022-10-02T10:56:43.283Z,101867.78
2022-10-02T10:59:48.280Z,101868.97
2022-10-02T11:02:35.938Z,101883.41
2022-10-02T11:05:17.437Z,101887.66
2022-10-02T11:07:44.473Z,101894.69
2022-10-02T11:10:22.716Z,101895.13
2022-10-02T11:12:55.102Z,101893.94
2022-10-02T11:15:50.281Z,101884.84
2022-10-02T11:18:52.203Z,101892.31
2022-10-02T11:21:39.878Z,101905.88
2022-10-02T11:24:31.381Z,101906.47
2022-10-02T11:27:24.765Z,101903.31
2022-10-02T11:30:12.683Z,101908.63
2022-10-02T11:33:13.005Z,101909.69
2022-10-02T11:36:16.956Z,101916.41
2022-10-02T11:39:24.397Z,101907.91
2022-10-02T11:42:43.212Z,101914.16
2022-10-02T11:45:33.879Z,101926.69
2022-10-02T11:48:31.909Z,101926.09
2022-10-02T11:51:17.302Z,101915.81
2022-10-02T11:54:19.963Z,101916.09
2022-10-02T11:57:00.594Z,101918.63
2022-10-02T12:00:05.468Z,101917.44
2022-10-02T12:02:42.993Z,101915.66
2022-10-02T12:05:33.693Z,101924.91
2022-10-02T12:08:37.885Z,101929.69
2022-10-02T12:11:33.118Z,101923.72
2022-10-02T12:14:11.943Z,101924.41
2022-10-02T12:17:00.886Z,101929.47
2022-10-02T12:19:39.519Z,101927.31
2022-10-02T12:22:35.793Z,101924.06
2022-10-02T12:25:39.029Z,101927.78
2022-10-02T12:28:31.431Z,101933.81
2022-10-02T12:31:25.167Z,101938.81
2022-10-02T12:33:56.742Z,101936.72
2022-10-02T12:36:33.887Z,101937.03
2022-10-02T12:39:27.468Z,101947.19
2022-10-02T12:42:11.623Z,101940.66
2022-10-02T12:45:16.381Z,101946.63
2022-10-02T12:48:03.763Z,101946.19
2022-10-02T12:50:39.819Z,101950.94
2022-10-02T12:53:36.003Z,101954.19
2022-10-02T12:56:22.880Z,101946.13
2022-10-02T12:58:58.049Z,101950.34
2022-10-02T13:01:52.474Z,101959.91
2022-10-02T13:04:37.918Z,101957.22
2022-10-02T13:07:32.027Z,101961.56
2022-10-02T13:10:01.325Z,101960.31
2022-10-02T13:12:55.153Z,101953.75
2022-10-02T13:15:46.213Z,101956.97
2022-10-02T13:18:43.786Z,101947.09
2022-10-02T13:21:29.576Z,101951.03
2022-10-02T13:24:08.496Z,101953.03
2022-10-02T13:27:07.287Z,101957.94
2022-10-02T13:30:01.966Z,101960.47
2022-10-02T13:32:42.072Z,101971.22
2022-10-02T13:35:35.984Z,101969.28
2022-10-02T13:38:39.931Z,101972.19
2022-10-02T13:41:39.805Z,101985.13
2022-10-02T13:44:30.728Z,101984.75
2022-10-02T13:47:23.884Z,101989.56
2022-10-02T13:50:18.405Z,101989.75
2022-10-02T13:53:03.619Z,101989.28
2022-10-02T13:56:03.941Z,101992.41
2022-10-02T13:58:33.303Z,101985.88
2022-10-02T14:01:19.043Z,101996.84
2022-10-02T14:04:13.391Z,101989.66
2022-10-02T14:06:44.357Z,102000.75
2022-10-02T14:09:51.602Z,102001.63
2022-10-02T14:12:27.520Z,102000.91
2022-10-02T14:15:12.506Z,102000.28
2022-10-02T14:17:38.844Z,102008.66
2022-10-02T14:20:39.492Z,102005.28
2022-10-02T14:23:21.959Z,102010.81
2022-10-02T14:25:54.485Z,102008.84
2022-10-02T14:28:36.792Z,102016.47
2022-10-02T14:31:32.184Z,102025.28
2022-10-02T14:34:10.364Z,102012.28
2022-10-02T14:37:00.099Z,102017.69
2022-10-02T14:39:31.562Z,102021.41
2022-10-02T14:42:15.575Z,102028.09
2022-10-02T14:44:56.860Z,102018.66
2022-10-02T14:47:34.952Z,102030.91
2022-10-02T14:50:18.177Z,102025.84
2022-10-02T14:53:05.870Z,102039.91
2022-10-02T14:55:43.414Z,102037.69
2022-10-02T14:58:12.744Z,102031.09
2022-10-02T15:01:10.690Z,102038.09
2022-10-02T15:03:56.196Z,102040.63
2022-10-02T15:06:53.548Z,102058.28
2022-10-02T15:09:25.069Z,102053.38
2022-10-02T15:12:09.659Z,102050.66
2022-10-02T15:14:50.123Z,102049.47
2022-10-02T15:17:50.670Z,102062.16
2022-10-02T15:20:26.152Z,102062.47
2022-10-02T15:23:00.814Z,102055.28
2022-10-02T15:25:45.663Z,102074.84
2022-10-02T15:28:36.324Z,102080.19
2022-10-02T15:31:21.230Z,102077.34
2022-10-02T15:34:02.801Z,102073.00
2022-10-02T15:36:43.750Z,102083.59
2022-10-02T15:39:33.044Z,102091.34
2022-10-02T15:42:08.680Z,102091.50
2022-10-02T15:44:50.245Z,102100.44
2022-10-02T15:47:35.652Z,102105.19
2022-10-02T15:50:26.930Z,102103.38
2022-10-02T15:53:11.657Z,102109.94
2022-10-02T15:55:49.709Z,102109.34
2022-10-02T15:58:41.868Z,102123.03
2022-10-02T16:01:47.567Z,102128.53
2022-10-02T16:04:29.516Z,102129.56
2022-10-02T16:07:43.707Z,102138.38
2022-10-02T16:10:20.481Z,102145.44
2022-10-02T16:13:18.656Z,102147.50
2022-10-02T16:16:00.188Z,102145.41
2022-10-02T16:18:50.405Z,102153.25
2022-10-02T16:21:22.836Z,102163.06
2022-10-02T16:24:18.677Z,102161.69
2022-10-02T16:27:06.132Z,102163.75
2022-10-02T16:30:05.303Z,102164.75
2022-10-02T16:33:00.927Z,102167.56
2022-10-02T16:36:02.040Z,102178.09
2022-10-02T16:38:49.341Z,102179.53
2022-10-02T16:41:27.905Z,102178.56
2022-10-02T16:44:19.202Z,102190.72
2022-10-02T16:46:55.094Z,102192.16
2022-10-02T16:49:49.876Z,102190.00
2022-10-02T16:52:41.330Z,102196.78
2022-10-02T16:55:22.943Z,102204.72
2022-10-02T16:57:58.150Z,102215.34
2022-10-02T17:00:39.890Z,102215.22
2022-10-02T17:03:19.496Z,102216.94
2022-10-02T17:05:53.979Z,102228.19
2022-10-02T17:08:51.182Z,102236.44
2022-10-02T17:11:22.746Z,102239.31
2022-10-02T17:14:04.397Z,102241.34
2022-10-02T17:16:43.044Z,102247.66
2022-10-02T17:19:27.618Z,102242.09
2022-10-02T17:22:09.635Z,102247.75
2022-10-02T17:24:49.253Z,102260.06
2022-10-02T17:27:33.960Z,102263.56
2022-10-02T17:30:18.756Z,102261.75
2022-10-02T17:32:51.125Z,102270.72
2022-10-02T17:35:32.155Z,102275.84
2022-10-02T17:38:20.508Z,102277.88
2022-10-02T17:40:54.053Z,102282.56
2022-10-02T17:43:43.717Z,102299.97
2022-10-02T17:46:19.240Z,102290.94
2022-10-02T17:49:00.844Z,102301.00
2022-10-02T17:51:54.233Z,102305.34
2022-10-02T17:55:12.993Z,102306.19
2022-10-02T17:58:26.898Z,102317.03
2022-10-02T18:01:12.026Z,102323.72
2022-10-02T18:04:09.010Z,102324.97
2022-10-02T18:07:01.407Z,102326.22
2022-10-02T18:09:43.739Z,102327.47
2022-10-02T18:12:37.036Z,102335.22
2022-10-02T18:15:26.230Z,102333.81
2022-10-02T18:18:22.302Z,102336.97
2022-10-02T18:21:22.818Z,102342.84
2022-10-02T18:24:23.264Z,102344.16
2022-10-02T18:27:18.231Z,102350.66
2022-10-02T18:30:03.508Z,102348.81
2022-10-02T18:32:46.541Z,102350.06
2022-10-02T18:35:32.184Z,102350.97
2022-10-02T18:38:25.587Z,102355.63
2022-10-02T18:41:06.914Z,102356.84
2022-10-02T18:43:59.031Z,102352.00
2022-10-02T18:46:30.619Z,102358.19
2022-10-02T18:49:18.396Z,102360.59
2022-10-02T18:52:16.602Z,102364.16
2022-10-02T18:55:02.928Z,102363.88
2022-10-02T18:57:37.610Z,102371.25
2022-10-02T19:00:27.961Z,102368.25
2022-10-02T19:03:00.084Z,102378.63
2022-10-02T19:05:38.876Z,102386.69
2022-10-02T19:08:05.229Z,102383.03
2022-10-02T19:10:31.538Z,102383.16
2022-10-02T19:13:17.773Z,102379.44
2022-10-02T19:15:48.288Z,102381.78
2022-10-02T19:18:26.859Z,102391.72
2022-10-02T19:20:57.690Z,102392.16
2022-10-02T19:23:33.361Z,102398.72
2022-10-02T19:26:05.688Z,102402.59
2022-10-02T19:28:38.910Z,102407.69
2022-10-02T19:31:09.201Z,102403.56
2022-10-02T19:33:46.861Z,102405.13
2022-10-02T19:36:17.820Z,102414.69
2022-10-02T19:38:51.316Z,102425.78
2022-10-02T19:41:18.717Z,102421.66
2022-10-02T19:43:54.309Z,102423.63
2022-10-02T19:46:31.067Z,102427.50
2022-10-02T19:48:59.565Z,102435.59
2022-10-02T19:51:25.950Z,102433.81
2022-10-02T19:54:04.807Z,102438.84
2022-10-02T19:56:42.094Z,102440.38
2022-10-02T19:59:27.452Z,102444.25
2022-10-02T20:01:59.367Z,102436.69
2022-10-02T20:04:31.092Z,102430.34
2022-10-02T20:06:59.598Z,102430.88
2022-10-02T20:09:37.815Z,102435.84
2022-10-02T20:12:11.867Z,102434.31
2022-10-02T20:14:50.434Z,102437.03
2022-10-02T20:17:18.899Z,102440.53
2022-10-02T20:19:52.676Z,102447.41
2022-10-02T20:22:30.087Z,102446.69
2022-10-02T20:25:20.083Z,102449.00
2022-10-02T20:28:00.043Z,102451.66
2022-10-02T20:30:35.651Z,102450.91
2022-10-02T20:33:09.836Z,102451.28
2022-10-02T20:35:44.924Z,102454.31
2022-10-02T20:38:23.847Z,102458.88
2022-10-02T20:40:53.265Z,102463.81
2022-10-02T20:43:33.219Z,102469.94
2022-10-02T20:46:27.560Z,102468.81
2022-10-02T20:49:15.503Z,102477.22
2022-10-02T20:51:56.291Z,102479.16
2022-10-02T20:55:01.411Z,102490.28
2022-10-02T20:57:43.407Z,102490.69
2022-10-02T21:00:20.692Z,102499.09
2022-10-02T21:03:02.145Z,102497.22
2022-10-02T21:05:48.620Z,102502.19
2022-10-02T21:08:26.896Z,102514.00
2022-10-02T21:11:16.507Z,102519.72
2022-10-02T21:13:55.115Z,102521.63
2022-10-02T21:16:30.148Z,102528.13
2022-10-02T21:19:16.670Z,102535.38
2022-10-02T21:21:55.759Z,102528.94
2022-10-02T21:24:31.078Z,102537.34
2022-10-02T21:27:27.732Z,102536.59
2022-10-02T21:30:19.731Z,102535.47
2022-10-02T21:33:10.973Z,102534.34
2022-10-02T21:35:55.057Z,102548.41
2022-10-02T21:38:42.069Z,102550.72
2022-10-02T21:41:30.149Z,102555.66
2022-10-02T21:44:25.763Z,102556.06
2022-10-02T21:47:18.736Z,102557.94
2022-10-02T21:49:52.357Z,102556.81
2022-10-02T21:52:24.659Z,102572.41
2022-10-02T21:55:21.242Z,102570.91
2022-10-02T21:58:29.095Z,102567.53
2022-10-02T22:01:01.213Z,102572.09
2022-10-02T22:03:45.511Z,102575.16
2022-10-02T22:06:25.799Z,102578.19
2022-10-02T22:09:14.563Z,102582.38
2022-10-02T22:11:48.978Z,102582.00
2022-10-02T22:14:39.020Z,102578.25
2022-10-02T22:17:33.954Z,102578.66
2022-10-02T22:20:14.703Z,102583.97
2022-10-02T22:22:58.998Z,102589.28
2022-10-02T22:25:36.666Z,102587.03
2022-10-02T22:28:34.268Z,102581.69
2022-10-02T22:31:12.645Z,102582.47
2022-10-02T22:34:06.440Z,102587.41
2022-10-02T22:36:47.794Z,102586.28
2022-10-02T22:39:26.935Z,102585.16
2022-10-02T22:42:05.598Z,102588.22
2022-10-02T22:44:42.641Z,102597.34
2022-10-02T22:47:14.400Z,102589.38
2022-10-02T22:49:51.275Z,102598.88
2022-10-02T22:52:32.936Z,102599.25
2022-10-02T22:55:23.160Z,102601.53
2022-10-02T22:58:09.384Z,102595.88
2022-10-02T23:01:13.973Z,102597.41
2022-10-02T23:03:50.375Z,102599.69
2022-10-02T23:06:33.579Z,102601.59
2022-10-02T23:09:14.197Z,102601.22
2022-10-02T23:12:06.351Z,102597.81
2022-10-02T23:14:51.147Z,102599.31
2022-10-02T23:17:45.508Z,102597.06
2022-10-02T23:20:19.645Z,102605.78
2022-10-02T23:22:59.664Z,102606.56
2022-10-02T23:25:33.968Z,102598.59
2022-10-02T23:28:04.819Z,102601.63
2022-10-02T23:30:36.112Z,102607.69
2022-10-02T23:33:04.346Z,102613.38
2022-10-02T23:35:46.603Z,102608.88
2022-10-02T23:38:25.367Z,102605.84
2022-10-02T23:41:18.150Z,102601.66
2022-10-02T23:43:54.755Z,102608.50
2022-10-02T23:46:29.711Z,102609.63
2022-10-02T23:48:56.425Z,102608.13
2022-10-02T23:51:28.997Z,102600.16
2022-10-02T23:54:30.163Z,102600.91
2022-10-02T23:57:29.735Z,102602.44
